Time;durP1;ratioP1;P1;durP2;ratioP2;P2;SDS_P1;SDS_P2;PMS_P1;PMS_P2;Temp;Humidity;BMP_temperature;BMP_pressure;BME280_temperature;BME280_humidity;BME280_pressure;Samples;Min_cycle;Max_cycle;Signal;HPM_P1;HPM_P2
2022/12/22 03:28:45;;;;;;;17.30;14.20;;;;;;;2.25;99.99;98973.50;424288;1272;197214;-71
2022/12/22 03:38:51;;;;;;;17.40;12.70;;;;;;;2.36;99.92;98965.52;423895;1275;141059;-72
2022/12/22 03:49:10;;;;;;;17.30;14.10;;;;;;;2.37;99.93;98953.70;426323;1274;141882;-71
2022/12/22 03:59:17;;;;;;;23.00;15.80;;;;;;;2.41;99.94;98943.02;423925;1274;141410;-71
2022/12/22 04:09:23;;;;;;;22.50;17.40;;;;;;;2.46;99.79;98937.26;424826;1275;142926;-70
2022/12/22 04:19:30;;;;;;;19.00;14.10;;;;;;;2.43;99.64;98924.95;421296;1275;142982;-71
2022/12/22 04:29:36;;;;;;;20.50;15.50;;;;;;;2.30;99.57;98909.75;423646;1274;142809;-71
2022/12/22 04:39:42;;;;;;;19.90;14.60;;;;;;;2.15;99.60;98902.76;425780;1279;141860;-72
2022/12/22 04:49:48;;;;;;;16.80;12.40;;;;;;;2.17;99.78;98905.09;424984;1274;141339;-71
2022/12/22 04:59:54;;;;;;;18.50;12.90;;;;;;;2.23;99.86;98899.49;423656;1275;142431;-71
2022/12/22 05:10:00;;;;;;;17.40;13.30;;;;;;;2.30;99.75;98899.76;423655;1280;142594;-71
2022/12/22 05:20:07;;;;;;;15.90;12.40;;;;;;;2.26;99.71;98898.89;423565;1274;142341;-72
2022/12/22 05:30:14;;;;;;;23.50;16.30;;;;;;;2.27;99.66;98907.65;422883;1277;144355;-71
2022/12/22 05:40:20;;;;;;;23.40;16.10;;;;;;;2.27;99.86;98898.48;423995;1274;142085;-71
2022/12/22 05:50:26;;;;;;;18.40;14.60;;;;;;;2.23;99.78;98906.40;423477;1282;142764;-72
2022/12/22 06:00:33;;;;;;;19.20;13.60;;;;;;;2.27;99.93;98902.83;422571;1275;142197;-72
2022/12/22 06:10:39;;;;;;;18.00;13.50;;;;;;;2.17;99.81;98900.80;423600;1274;141646;-72
2022/12/22 06:20:46;;;;;;;17.70;12.70;;;;;;;2.07;99.89;98906.53;423618;1275;143124;-71
2022/12/22 06:30:52;;;;;;;17.50;12.90;;;;;;;2.08;100.00;98904.42;423208;1278;141197;-70
2022/12/22 06:40:58;;;;;;;20.10;14.80;;;;;;;2.09;99.96;98890.73;423690;1275;142648;-70
2022/12/22 06:51:05;;;;;;;17.00;13.60;;;;;;;2.10;99.83;98883.80;422618;1274;141921;-70
2022/12/22 07:01:11;;;;;;;18.60;14.30;;;;;;;2.10;99.96;98885.02;423509;1274;141817;-71
2022/12/22 07:11:17;;;;;;;19.20;12.80;;;;;;;2.12;99.99;98879.76;423891;1275;142599;-70
2022/12/22 07:21:23;;;;;;;18.60;14.50;;;;;;;2.22;99.94;98874.69;424692;1274;143031;-70
2022/12/22 07:31:29;;;;;;;17.70;11.90;;;;;;;2.36;99.96;98875.69;431001;1281;141630;-71
2022/12/22 07:52:00;;;;;;;19.10;14.50;;;;;;;2.66;99.68;98844.70;435995;1274;141961;-72
2022/12/22 08:02:06;;;;;;;22.60;16.60;;;;;;;2.73;99.67;98831.75;436608;1281;141696;-72
2022/12/22 08:12:12;;;;;;;21.20;15.50;;;;;;;2.79;99.27;98827.36;435959;1280;142012;-72
2022/12/22 08:22:18;;;;;;;22.40;15.40;;;;;;;2.91;99.41;98826.47;436561;1280;142066;-74
2022/12/22 08:32:24;;;;;;;21.50;13.50;;;;;;;3.06;99.00;98813.55;436691;1280;142794;-72
2022/12/22 08:42:30;;;;;;;19.70;14.70;;;;;;;3.29;99.08;98805.93;427013;1287;143419;-72
2022/12/22 08:52:36;;;;;;;17.10;13.90;;;;;;;3.54;98.76;98801.81;433445;1282;141928;-72
2022/12/22 09:02:42;;;;;;;16.10;12.60;;;;;;;3.74;98.21;98793.59;436654;1281;141840;-72
2022/12/22 09:12:50;;;;;;;17.80;12.90;;;;;;;3.92;97.80;98779.27;435949;1281;142359;-71
2022/12/22 09:22:54;;;;;;;;;;;;;;;4.06;97.58;98766.91;436524;1289;142711;-72
2022/12/22 09:33:00;;;;;;;22.40;14.70;;;;;;;4.42;97.04;98757.85;433022;1288;129917;-72
2022/12/22 09:43:06;;;;;;;18.50;14.60;;;;;;;4.97;96.88;98721.45;436212;1283;142194;-72
2022/12/22 09:53:19;;;;;;;20.00;15.10;;;;;;;5.42;95.93;98701.14;436672;1282;142434;-72
2022/12/22 10:03:35;;;;;;;19.10;13.30;;;;;;;5.72;95.35;98682.05;435548;1283;144175;-72
2022/12/22 10:13:41;;;;;;;20.50;17.10;;;;;;;5.62;94.09;98662.33;436271;1281;143128;-72
2022/12/22 10:23:48;;;;;;;22.30;17.00;;;;;;;5.42;93.54;98668.14;436261;1288;142040;-72
2022/12/22 10:33:57;;;;;;;26.30;19.30;;;;;;;5.52;93.04;98648.45;435605;1288;142787;-72
2022/12/22 10:44:08;;;;;;;29.30;19.70;;;;;;;6.10;92.88;98632.20;426560;1287;142666;-72
2022/12/22 10:54:31;;;;;;;24.70;17.20;;;;;;;6.29;91.36;98623.83;435370;1287;145505;-72
2022/12/22 11:04:37;;;;;;;27.80;18.70;;;;;;;5.93;90.80;98619.86;436595;1286;142620;-73
2022/12/22 11:14:51;;;;;;;28.20;20.50;;;;;;;5.45;90.98;98601.50;436697;1282;144574;-71
2022/12/22 11:25:18;;;;;;;27.00;20.50;;;;;;;5.31;91.41;98588.27;435832;1283;142545;-71
2022/12/22 11:35:37;;;;;;;29.00;21.00;;;;;;;5.11;91.46;98580.20;436516;1287;141943;-72
2022/12/22 11:45:52;;;;;;;28.90;19.00;;;;;;;4.95;91.93;98580.95;424000;1287;142062;-71
2022/12/22 11:56:14;;;;;;;41.50;25.30;;;;;;;4.82;92.22;98571.77;425506;1283;141746;-72
2022/12/22 12:06:42;;;;;;;41.00;26.70;;;;;;;4.61;92.49;98565.80;435622;1286;140917;-72
2022/12/22 12:16:57;;;;;;;33.80;22.60;;;;;;;4.54;92.86;98551.84;436413;1281;141382;-72
2022/12/22 12:27:11;;;;;;;23.90;18.10;;;;;;;4.58;93.16;98553.88;435661;1287;141478;-72
2022/12/22 12:37:28;;;;;;;25.10;17.70;;;;;;;4.57;93.26;98531.94;436330;1274;141942;-71
2022/12/22 12:47:36;;;;;;;28.70;17.90;;;;;;;4.57;93.22;98515.91;436312;1289;142037;-71
2022/12/22 12:57:47;;;;;;;;;;;;;;;4.61;93.36;98495.14;435633;1284;142121;-71
2022/12/22 13:08:13;;;;;;;18.80;15.30;;;;;;;4.75;93.32;98489.46;436547;1280;128823;-71
2022/12/22 13:18:43;;;;;;;20.20;15.60;;;;;;;4.67;93.27;98487.13;435567;1274;160274;-71
2022/12/22 13:28:57;;;;;;;22.50;16.60;;;;;;;4.70;93.51;98472.42;436724;1281;141391;-72
2022/12/22 13:39:04;;;;;;;19.10;13.50;;;;;;;4.73;93.46;98468.57;435496;1281;144189;-72
2022/12/22 13:49:13;;;;;;;;;;;;;;;4.62;93.27;98465.55;436607;1289;143085;-71
2022/12/22 13:59:43;;;;;;;17.10;11.70;;;;;;;4.40;93.48;98467.31;436873;1282;127808;-71
2022/12/22 14:09:50;;;;;;;16.00;12.70;;;;;;;4.18;93.61;98462.88;435758;1289;142677;-72
2022/12/22 14:19:58;;;;;;;17.60;11.80;;;;;;;4.03;94.13;98460.55;436350;1283;143319;-72
2022/12/22 14:30:07;;;;;;;17.80;13.40;;;;;;;4.00;94.44;98452.60;435906;1281;141834;-72
2022/12/22 14:40:30;;;;;;;17.70;13.80;;;;;;;3.95;94.68;98434.80;435915;1281;141920;-72
2022/12/22 14:50:38;;;;;;;22.60;16.50;;;;;;;4.01;94.79;98430.00;436656;1284;141551;-71
2022/12/22 15:00:46;;;;;;;18.50;13.80;;;;;;;4.05;94.94;98421.15;435769;1282;142435;-72
2022/12/22 15:10:53;;;;;;;21.00;13.80;;;;;;;4.07;94.94;98416.17;436507;1282;143578;-72
2022/12/22 15:20:59;;;;;;;24.40;15.90;;;;;;;4.03;95.05;98413.27;436515;1287;143455;-72
2022/12/22 15:31:12;;;;;;;20.30;15.10;;;;;;;3.97;95.31;98407.18;436217;1289;200031;-72
2022/12/22 15:41:19;;;;;;;18.50;13.00;;;;;;;4.13;95.78;98403.20;432924;1281;143101;-70
2022/12/22 15:51:27;;;;;;;15.50;11.80;;;;;;;4.23;95.64;98401.41;430036;1283;141861;-71
2022/12/22 16:01:33;;;;;;;16.90;11.90;;;;;;;4.28;95.55;98396.24;433045;1285;141865;-72
2022/12/22 16:11:40;;;;;;;17.60;11.40;;;;;;;4.32;95.41;98393.45;436635;1284;143027;-71
2022/12/22 16:21:50;;;;;;;15.40;11.30;;;;;;;4.32;95.51;98395.86;435924;1281;142257;-70
2022/12/22 16:32:15;;;;;;;20.20;12.20;;;;;;;4.37;95.28;98396.81;425787;1275;142116;-71
2022/12/22 16:42:23;;;;;;;18.20;12.60;;;;;;;4.36;95.17;98393.92;422431;1275;143148;-71
2022/12/22 16:52:47;;;;;;;20.40;13.00;;;;;;;4.29;95.01;98388.42;424041;1274;142140;-71
2022/12/22 17:02:56;;;;;;;21.10;13.80;;;;;;;4.20;95.14;98381.64;424146;1274;142645;-70
2022/12/22 17:13:03;;;;;;;20.00;13.10;;;;;;;4.15;95.06;98380.38;423246;1274;199214;-73
2022/12/22 17:23:24;;;;;;;20.40;14.20;;;;;;;4.16;95.17;98380.82;423755;1275;142635;-71
2022/12/22 17:33:31;;;;;;;15.80;12.20;;;;;;;4.20;95.33;98365.56;423044;1275;142275;-70
2022/12/22 17:43:37;;;;;;;14.00;10.70;;;;;;;4.20;95.20;98365.52;423814;1275;142325;-71
2022/12/22 17:53:43;;;;;;;17.60;11.60;;;;;;;4.17;95.11;98361.56;422542;1281;143036;-70
2022/12/22 18:03:49;;;;;;;16.10;12.10;;;;;;;4.12;95.13;98357.67;427165;1275;141704;-71
2022/12/22 18:13:56;;;;;;;17.20;13.30;;;;;;;4.12;95.29;98347.48;426147;1277;143051;-71
2022/12/22 18:24:04;;;;;;;21.10;15.40;;;;;;;4.10;95.45;98335.14;435757;1280;142589;-72
2022/12/22 18:34:10;;;;;;;17.80;12.30;;;;;;;4.08;95.42;98337.32;436280;1275;142859;-73
2022/12/22 18:44:19;;;;;;;20.70;13.70;;;;;;;4.04;95.69;98339.73;436173;1289;143263;-72
2022/12/22 18:54:35;;;;;;;26.30;16.50;;;;;;;4.11;95.90;98333.34;435536;1287;142383;-72
2022/12/22 19:04:41;;;;;;;16.40;13.30;;;;;;;4.19;96.52;98330.61;427156;1275;141623;-73
2022/12/22 19:14:50;;;;;;;16.20;11.10;;;;;;;4.23;96.91;98322.59;424467;1281;142387;-73
2022/12/22 19:24:57;;;;;;;29.70;18.30;;;;;;;4.18;97.49;98322.02;431435;1281;141419;-73
2022/12/22 19:35:04;;;;;;;17.00;12.90;;;;;;;4.09;97.98;98308.69;423912;1275;153245;-73
2022/12/22 19:45:17;;;;;;;18.90;12.70;;;;;;;4.01;98.51;98304.80;423101;1274;142538;-73
2022/12/22 19:55:32;;;;;;;20.60;13.80;;;;;;;3.91;98.76;98300.14;436404;1274;142346;-74
2022/12/22 20:05:38;;;;;;;22.60;16.50;;;;;;;3.90;99.00;98292.63;433269;1275;140946;-73
2022/12/22 20:15:45;;;;;;;21.20;14.20;;;;;;;3.91;99.26;98296.35;424080;1275;142686;-74
2022/12/22 20:25:51;;;;;;;;;;;;;;;3.91;99.30;98297.41;436348;1283;142500;-73
2022/12/22 20:36:00;;;;;;;20.90;15.50;;;;;;;3.93;99.51;98296.77;436264;1284;127274;-72
2022/12/22 20:46:14;;;;;;;18.70;13.90;;;;;;;3.91;99.79;98297.02;423485;1274;141498;-73
2022/12/22 20:56:26;;;;;;;15.20;10.00;;;;;;;3.94;100.00;98297.23;424278;1274;141163;-74
2022/12/22 21:06:36;;;;;;;17.40;11.20;;;;;;;3.95;100.00;98298.75;435565;1275;142358;-73
2022/12/22 21:16:43;;;;;;;12.10;8.70;;;;;;;4.00;100.00;98302.77;429567;1275;142334;-72
2022/12/22 21:26:51;;;;;;;15.40;11.30;;;;;;;4.08;100.00;98310.32;423857;1277;142066;-72
2022/12/22 21:37:02;;;;;;;14.10;9.50;;;;;;;4.10;100.00;98318.86;435367;1281;145366;-71
2022/12/22 21:47:12;;;;;;;18.90;13.80;;;;;;;4.10;100.00;98321.79;424853;1275;144275;-72
2022/12/22 21:57:18;;;;;;;17.20;12.10;;;;;;;4.04;100.00;98321.75;423073;1278;141744;-72
2022/12/22 22:07:24;;;;;;;16.70;12.80;;;;;;;4.00;100.00;98331.05;425687;1274;145528;-73
2022/12/22 22:17:30;;;;;;;13.90;11.20;;;;;;;3.97;100.00;98340.20;436375;1281;141427;-71
2022/12/22 22:27:37;;;;;;;15.60;12.10;;;;;;;3.98;100.00;98341.68;431900;1282;141638;-71
2022/12/22 22:37:50;;;;;;;12.80;9.80;;;;;;;3.99;100.00;98347.89;424801;1282;143238;-72
2022/12/22 22:47:57;;;;;;;12.80;10.70;;;;;;;3.99;100.00;98351.48;423987;1275;141781;-71
2022/12/22 22:58:03;;;;;;;18.40;12.50;;;;;;;4.02;100.00;98343.17;423926;1282;141916;-72
2022/12/22 23:08:09;;;;;;;17.50;12.70;;;;;;;4.01;100.00;98348.98;426966;1274;141757;-72
2022/12/22 23:18:15;;;;;;;14.80;10.70;;;;;;;3.98;100.00;98345.65;435432;1282;142230;-73
2022/12/22 23:28:21;;;;;;;17.10;11.90;;;;;;;3.99;100.00;98336.97;423914;1280;142101;-73
2022/12/22 23:38:27;;;;;;;15.90;12.00;;;;;;;3.98;100.00;98341.14;424077;1281;141085;-72
2022/12/22 23:48:34;;;;;;;15.10;11.70;;;;;;;3.94;100.00;98358.33;422910;1281;143004;-71
2022/12/22 23:58:40;;;;;;;17.70;13.60;;;;;;;3.97;100.00;98364.42;422238;1275;141728;-67
